UBBN

Nakhchivan Airport

Nakhchivan, Azerbaijan
TAF UBBN 202304Z 2100/2124 17010KT 9999 SCT040 SCT050CB BKN100 TX16/2112Z TN06/2103Z TEMPO 2100/2108 22012KT -TSRA SCT040CB OVC083 TEMPO 2108/2116 -SHRA SCT030CB OVC080
Issued Valid From Valid To
Apr-20 @ 23:04 UTC
(5 hours ago)
Apr-21 @ 00:00 UTC
(4 hours ago)
Apr-22 @ 00:00 UTC
(in 20 hours)
Apr-21 @ 00:00 to Apr-22 @ 00:00
TAF UBBN 202304Z 2100/2124 17010KT 9999 SCT040 SCT050CB BKN100 TX16/2112Z TN06/2103Z
Wind Visibility Clouds
170° at 10 knots 10,000+ meters
  • Scattered at 4,000' AGL
  • Scattered at 5,000' AGL
  • Broken at 10,000' AGL
Temporary Apr-21 @ 00:00 to Apr-21 @ 08:00
TEMPO 2100/2108 22012KT -TSRA SCT040CB OVC083
Wind Clouds Conditions
220° at 12 knots
  • Scattered at 4,000' AGL
  • Overcast at 8,300' AGL
  • Light Thunderstorm
  • Light Rain
Temporary Apr-21 @ 08:00 to Apr-21 @ 16:00
TEMPO 2108/2116 -SHRA SCT030CB OVC080
Clouds Conditions
  • Scattered at 3,000' AGL
  • Overcast at 8,000' AGL
  • Light Rain
TAF UBBN 202304Z 2100/2124 17010KT 9999 SCT040 SCT050CB BKN100 TX16/2112Z TN06/2103Z TEMPO 2100/2108 22012KT -TSRA SCT040CB OVC083 TEMPO 2108/2116 -SHRA SCT030CB OVC080
Issued Apr-20 @ 23:04 UTC
(5 hours ago)
Valid From Apr-21 @ 00:00 UTC
(4 hours ago)
Valid To Apr-22 @ 00:00 UTC
(in 20 hours)
Apr-21 @ 00:00 - Apr-22 @ 00:00
Wind Visibility
170° at 10 knots 10,000+ meters
Clouds
  • Scattered at 4,000' AGL
  • Scattered at 5,000' AGL
  • Broken at 10,000' AGL
Temporary Apr-21 @ 00:00 - Apr-21 @ 08:00
Wind
220° at 12 knots
Clouds
  • Scattered at 4,000' AGL
  • Overcast at 8,300' AGL
Conditions
  • Light Thunderstorm
  • Light Rain
Temporary Apr-21 @ 08:00 - Apr-21 @ 16:00
Clouds
  • Scattered at 3,000' AGL
  • Overcast at 8,000' AGL
Conditions
  • Light Rain